Main page
METAR-TAF:

METAR-TAF

Airports :

Whiting_Field_Naval_Air_Station_South_Airport

Milton, Florida, United States

latitude: 30-41-50N, longitude: 087-01-12W, elevation: 177 ft

Current weather observation

The report was made 1 hour and 7 minutes ago, at 12:56 UTC
Wind 9 mph from the East/Northeast
Temperature 64°F
Humidity 88%
Pressure 30.19 in. Hg
Visibility: 10 miles
Scattered clouds at a height of 4000 ft
Broken clouds at a height of 6500 ft
Overcast at a height of 9000 ft
light rain

METAR: KNDZ 211256Z 07008KT 10SM -RA SCT040 BKN065 OVC090 18/16 A3019 RMK AO2 SLP208 P0005 T01780161 $

Time: 09:03 (14:03 UTC)


TAF: missing

Weather observations and forecasts of more than 4000 airports (METAR and TAF reports).

The available stations are represented by yellow and red dots on the map.

Hover mouse over dot to see the name of the station.

Then click to see weather observations and forecasts.

To change the map : click on the green buttons with a black cross to zoom in, on the green button with a dash to zoom out, or on the green arrows for adjacent maps.


METAR-TAF: